Time;durP1;ratioP1;P1;durP2;ratioP2;P2;SDS_P1;SDS_P2;PMS_P1;PMS_P2;Temp;Humidity;BMP_temperature;BMP_pressure;BME280_temperature;BME280_humidity;BME280_pressure;Samples;Min_cycle;Max_cycle;Signal;HPM_P1;HPM_P2
2023/05/04 00:00:49;;;;;;;5.57;3.78;;;22.90;52.60;;;;;;10533461;28;20039;-24
2023/05/04 00:05:51;;;;;;;;;;;22.90;52.70;;;;;;10518667;28;20088;-23
2023/05/04 00:10:54;;;;;;;5.23;3.73;;;22.80;52.80;;;;;;10517234;28;19963;-24
2023/05/04 00:15:56;;;;;;;5.18;3.50;;;22.80;52.80;;;;;;10503406;28;20478;-23
2023/05/04 00:20:58;;;;;;;3.85;2.80;;;22.80;52.80;;;;;;10517108;28;20091;-24
2023/05/04 00:26:02;;;;;;;5.03;3.22;;;22.70;52.80;;;;;;10509181;28;20068;-24
2023/05/04 00:31:03;;;;;;;5.45;2.70;;;22.70;53.00;;;;;;10509516;28;20066;-22
2023/05/04 00:36:06;;;;;;;4.55;3.00;;;22.60;52.90;;;;;;10516709;28;20040;-24
2023/05/04 00:41:09;;;;;;;5.70;3.33;;;22.60;52.90;;;;;;10501320;28;20072;-23
2023/05/04 00:46:11;;;;;;;5.40;3.10;;;22.50;53.00;;;;;;10541434;28;20164;-23
2023/05/04 00:51:16;;;;;;;4.70;2.92;;;22.50;52.90;;;;;;10529944;28;20084;-24
2023/05/04 00:56:22;;;;;;;4.93;3.13;;;22.40;53.00;;;;;;10531155;28;20511;-24
2023/05/04 01:01:25;;;;;;;5.60;3.08;;;22.40;53.10;;;;;;10515667;28;20491;-24
2023/05/04 01:06:37;;;;;;;5.25;2.95;;;22.40;53.20;;;;;;10514558;28;20076;-24
2023/05/04 01:11:45;;;;;;;4.78;3.15;;;22.30;53.20;;;;;;10517090;28;20135;-24
2023/05/04 01:16:47;;;;;;;5.28;3.50;;;22.30;53.30;;;;;;10507208;28;20097;-23
2023/05/04 01:21:51;;;;;;;6.45;2.58;;;22.20;53.30;;;;;;10523900;28;20059;-23
2023/05/04 01:26:56;;;;;;;4.32;2.80;;;22.20;53.30;;;;;;10517482;28;20082;-24
2023/05/04 01:31:59;;;;;;;4.80;2.20;;;22.20;53.40;;;;;;10518675;28;20063;-24
2023/05/04 01:37:03;;;;;;;3.10;2.30;;;22.10;53.30;;;;;;10522563;28;20070;-23
2023/05/04 01:42:06;;;;;;;4.57;2.55;;;22.10;53.30;;;;;;10520050;28;20072;-24
2023/05/04 01:47:08;;;;;;;3.97;2.28;;;22.10;53.50;;;;;;10518987;28;20371;-25
2023/05/04 01:52:11;;;;;;;3.30;2.70;;;22.00;53.40;;;;;;10498187;28;20052;-24
2023/05/04 01:57:13;;;;;;;6.82;2.33;;;22.00;53.50;;;;;;10529106;28;20461;-23
2023/05/04 02:02:15;;;;;;;3.53;2.10;;;22.00;53.50;;;;;;10533883;28;20479;-23
2023/05/04 02:07:18;;;;;;;1.90;1.63;;;21.90;53.50;;;;;;10508029;28;20060;-23
2023/05/04 02:12:20;;;;;;;3.60;1.90;;;21.90;53.50;;;;;;10514031;28;20143;-24
2023/05/04 02:17:22;;;;;;;3.47;2.15;;;21.80;53.60;;;;;;10513726;28;20041;-24
2023/05/04 02:22:25;;;;;;;3.22;2.17;;;21.80;53.60;;;;;;10529646;28;20077;-24
2023/05/04 02:27:27;;;;;;;3.50;2.15;;;21.80;53.70;;;;;;10519500;28;20119;-24
2023/05/04 02:32:29;;;;;;;2.47;1.95;;;21.70;53.70;;;;;;10515308;28;20083;-24
2023/05/04 02:37:32;;;;;;;;;;;21.70;53.80;;;;;;10514316;28;20132;-23
2023/05/04 02:42:34;;;;;;;3.65;1.63;;;21.70;53.80;;;;;;10534915;28;19927;-24
2023/05/04 02:47:36;;;;;;;2.63;1.48;;;21.70;53.70;;;;;;10533293;28;20070;-23
2023/05/04 02:52:39;;;;;;;1.70;1.40;;;21.60;53.80;;;;;;10530525;28;20166;-24
2023/05/04 02:57:41;;;;;;;2.53;1.60;;;21.60;53.70;;;;;;10532544;28;20143;-24
2023/05/04 03:02:43;;;;;;;3.60;1.75;;;21.60;53.90;;;;;;10537919;28;20098;-24
2023/05/04 03:07:46;;;;;;;2.00;1.38;;;21.50;53.90;;;;;;10522829;28;20036;-24
2023/05/04 03:12:48;;;;;;;2.15;1.80;;;21.50;53.90;;;;;;10522965;28;20052;-24
2023/05/04 03:17:50;;;;;;;1.95;1.48;;;21.40;53.90;;;;;;10519244;28;20074;-24
2023/05/04 03:22:53;;;;;;;2.75;1.75;;;21.40;53.90;;;;;;10527527;28;20871;-24
2023/05/04 03:27:55;;;;;;;2.58;1.70;;;21.40;54.10;;;;;;10523513;28;20050;-24
2023/05/04 03:32:57;;;;;;;3.45;1.90;;;21.30;54.00;;;;;;10504950;28;20096;-24
2023/05/04 03:38:00;;;;;;;2.47;1.80;;;21.30;54.10;;;;;;10510727;28;20409;-24
2023/05/04 03:43:02;;;;;;;3.40;1.25;;;21.30;54.00;;;;;;10526168;28;20071;-24
2023/05/04 03:48:04;;;;;;;3.95;1.80;;;21.30;54.20;;;;;;10520878;28;20071;-24
2023/05/04 03:53:07;;;;;;;1.67;1.50;;;21.20;54.10;;;;;;10524575;28;20550;-24
2023/05/04 03:58:09;;;;;;;1.80;1.35;;;21.20;54.10;;;;;;10509919;28;20429;-22
2023/05/04 04:03:11;;;;;;;2.53;1.67;;;21.20;54.10;;;;;;10528404;28;20052;-24
2023/05/04 04:08:14;;;;;;;1.95;1.35;;;21.10;54.20;;;;;;10522140;28;20131;-24
2023/05/04 04:13:15;;;;;;;2.58;1.48;;;21.10;54.10;;;;;;10522167;28;20048;-23
2023/05/04 04:18:17;;;;;;;2.13;1.52;;;21.10;54.20;;;;;;10524495;28;20171;-23
2023/05/04 04:23:20;;;;;;;2.55;1.48;;;21.10;54.20;;;;;;10508857;28;20083;-24
2023/05/04 04:28:22;;;;;;;2.28;1.63;;;21.00;54.20;;;;;;10534690;28;20043;-23
2023/05/04 04:33:24;;;;;;;3.28;1.50;;;21.00;54.30;;;;;;10521145;28;20565;-23
2023/05/04 04:38:27;;;;;;;2.05;1.50;;;21.00;54.20;;;;;;10513755;28;20573;-24
2023/05/04 04:43:29;;;;;;;2.10;1.60;;;20.90;54.40;;;;;;10521716;28;20060;-24
2023/05/04 04:48:31;;;;;;;1.90;1.25;;;21.00;54.30;;;;;;10513601;28;20098;-24
2023/05/04 04:53:34;;;;;;;2.28;1.27;;;21.00;54.40;;;;;;10514343;28;20091;-24
2023/05/04 04:58:36;;;;;;;2.17;1.10;;;20.90;54.40;;;;;;10517760;28;20535;-23
2023/05/04 05:03:38;;;;;;;2.17;1.42;;;20.90;54.40;;;;;;10521259;28;20076;-22
2023/05/04 05:08:43;;;;;;;2.05;1.17;;;20.90;55.00;;;;;;10521670;28;20044;-23
2023/05/04 05:13:45;;;;;;;1.50;0.95;;;20.90;54.50;;;;;;10525445;28;20046;-22
2023/05/04 05:18:47;;;;;;;2.47;1.10;;;20.90;54.30;;;;;;10536678;28;20139;-23
2023/05/04 05:23:50;;;;;;;1.30;1.20;;;20.80;54.30;;;;;;10521717;28;20067;-24
2023/05/04 05:28:52;;;;;;;2.03;1.20;;;20.80;54.40;;;;;;10522682;28;20050;-23
2023/05/04 05:33:54;;;;;;;5.70;1.67;;;20.50;54.40;;;;;;10513886;28;20059;-24
2023/05/04 05:38:57;;;;;;;4.63;1.02;;;20.60;53.50;;;;;;10506764;28;20120;-24
2023/05/04 05:43:59;;;;;;;1.83;1.10;;;20.70;53.60;;;;;;10520306;28;20135;-23
2023/05/04 05:49:00;;;;;;;3.63;1.20;;;20.80;53.30;;;;;;10500944;28;20136;-23
2023/05/04 05:54:04;;;;;;;2.10;0.90;;;20.90;53.30;;;;;;10514760;28;20087;-24
2023/05/04 05:59:06;;;;;;;1.88;1.10;;;20.80;53.40;;;;;;10517469;28;20469;-25
2023/05/04 06:04:08;;;;;;;2.00;1.05;;;20.80;53.30;;;;;;10522796;28;20053;-23
2023/05/04 06:09:11;;;;;;;1.77;1.05;;;20.80;53.30;;;;;;10515207;28;20066;-24
2023/05/04 06:14:13;;;;;;;3.20;1.10;;;20.80;53.30;;;;;;10529573;28;20578;-23
2023/05/04 06:19:14;;;;;;;1.85;1.00;;;20.90;53.20;;;;;;10519531;28;20510;-24
2023/05/04 06:24:18;;;;;;;1.77;1.10;;;20.90;53.20;;;;;;10538867;28;20086;-23
2023/05/04 06:29:19;;;;;;;2.47;1.17;;;20.90;53.20;;;;;;10527590;28;20048;-23
2023/05/04 06:34:21;;;;;;;2.22;1.45;;;21.00;53.10;;;;;;10519899;28;20105;-24
2023/05/04 06:39:24;;;;;;;2.03;1.05;;;20.90;53.00;;;;;;10512067;28;20235;-23
2023/05/04 06:44:26;;;;;;;1.65;0.93;;;21.00;53.00;;;;;;10519212;28;20048;-23
2023/05/04 06:49:31;;;;;;;2.25;1.10;;;21.00;53.10;;;;;;10527829;28;20500;-23
2023/05/04 06:54:34;;;;;;;2.67;1.13;;;20.90;53.20;;;;;;10506457;28;20135;-23
2023/05/04 06:59:36;;;;;;;2.58;1.20;;;20.90;53.10;;;;;;10525699;28;20146;-24
2023/05/04 07:04:38;;;;;;;1.92;1.33;;;20.90;53.10;;;;;;10501471;28;20358;-22
2023/05/04 07:09:42;;;;;;;5.90;1.52;;;20.90;53.00;;;;;;10509934;28;20464;-22
2023/05/04 07:14:44;;;;;;;3.55;1.52;;;20.80;52.90;;;;;;10522507;28;21515;-22
2023/05/04 07:19:48;;;;;;;3.90;1.80;;;20.90;53.10;;;;;;10524561;28;20040;-23
2023/05/04 07:24:51;;;;;;;2.92;1.70;;;20.80;53.10;;;;;;10510688;28;20048;-24
2023/05/04 07:29:53;;;;;;;2.55;1.65;;;20.90;53.30;;;;;;10510727;28;20406;-24
2023/05/04 07:34:56;;;;;;;2.92;1.80;;;20.90;53.20;;;;;;10519142;28;20496;-24
2023/05/04 07:40:00;;;;;;;4.60;2.55;;;20.90;53.30;;;;;;10512866;28;20442;-24
2023/05/04 07:45:02;;;;;;;4.18;2.20;;;21.00;53.30;;;;;;10533285;28;20075;-23
2023/05/04 07:50:05;;;;;;;6.93;2.20;;;20.90;53.20;;;;;;10517388;28;20055;-24
2023/05/04 07:55:09;;;;;;;3.38;2.03;;;21.00;53.10;;;;;;10511668;28;20133;-24
2023/05/04 08:00:12;;;;;;;4.30;1.52;;;21.00;52.90;;;;;;10525259;28;20131;-24
2023/05/04 08:05:13;;;;;;;2.78;1.42;;;21.10;53.00;;;;;;10524413;28;20520;-22
2023/05/04 08:10:17;;;;;;;2.42;1.20;;;21.10;52.80;;;;;;10530131;28;20527;-22
2023/05/04 08:15:19;;;;;;;2.45;1.00;;;21.20;52.60;;;;;;10505857;28;20154;-24
2023/05/04 08:20:21;;;;;;;6.35;2.55;;;21.30;52.70;;;;;;10521131;28;20043;-24
2023/05/04 08:25:24;;;;;;;4.53;1.80;;;21.40;52.20;;;;;;10526114;28;20056;-23
2023/05/04 08:30:26;;;;;;;6.20;2.47;;;21.40;52.70;;;;;;10521219;28;20049;-23
2023/05/04 08:35:28;;;;;;;3.53;1.75;;;21.50;52.40;;;;;;10507462;28;20485;-23
2023/05/04 08:40:33;;;;;;;3.00;1.80;;;21.50;52.50;;;;;;10518797;28;20054;-23
2023/05/04 08:45:38;;;;;;;4.78;1.42;;;21.60;52.30;;;;;;10523424;28;20409;-24
2023/05/04 08:50:40;;;;;;;8.60;1.30;;;21.70;52.50;;;;;;10517870;28;20058;-24
2023/05/04 08:55:46;;;;;;;11.88;1.73;;;21.80;52.30;;;;;;10509959;28;20058;-23
2023/05/04 09:00:48;;;;;;;6.28;1.52;;;21.60;52.30;;;;;;10525220;28;20048;-24
2023/05/04 09:05:51;;;;;;;7.70;1.98;;;21.80;52.00;;;;;;10530378;28;20054;-24
2023/05/04 09:10:54;;;;;;;2.42;1.20;;;21.90;52.00;;;;;;10518717;28;20536;-24
2023/05/04 09:15:58;;;;;;;3.00;1.60;;;22.00;51.50;;;;;;10519833;28;20142;-24
2023/05/04 09:21:00;;;;;;;4.32;2.10;;;22.00;51.40;;;;;;10527005;28;20079;-24
2023/05/04 09:26:03;;;;;;;5.38;1.48;;;22.00;51.20;;;;;;10509907;28;20123;-24
2023/05/04 09:31:06;;;;;;;2.80;1.58;;;22.00;51.10;;;;;;10515377;28;20047;-24
2023/05/04 09:36:15;;;;;;;2.42;1.35;;;22.00;50.90;;;;;;10529477;28;20044;-25
2023/05/04 09:41:18;;;;;;;2.92;1.77;;;22.10;50.80;;;;;;10523908;28;20449;-23
2023/05/04 09:46:21;;;;;;;2.40;1.50;;;22.20;50.60;;;;;;10534411;28;20412;-24
2023/05/04 09:51:24;;;;;;;6.13;2.45;;;22.00;51.00;;;;;;10522939;28;20505;-24
2023/05/04 09:56:38;;;;;;;2.92;1.60;;;22.20;50.70;;;;;;10539756;28;20133;-23
2023/05/04 10:01:41;;;;;;;2.95;1.40;;;22.20;50.60;;;;;;10534409;28;20055;-23
2023/05/04 10:06:43;;;;;;;4.28;1.52;;;22.20;50.50;;;;;;10530484;28;20063;-23
2023/05/04 10:11:47;;;;;;;2.78;1.52;;;22.30;50.30;;;;;;10533510;28;20136;-22
2023/05/04 10:16:56;;;;;;;4.25;1.90;;;22.10;50.90;;;;;;10538354;28;20147;-23
2023/05/04 10:22:12;;;;;;;3.90;2.30;;;22.30;50.60;;;;;;10534288;28;20170;-23
2023/05/04 10:27:17;;;;;;;6.03;3.00;;;22.50;50.00;;;;;;10524262;28;20416;-23
2023/05/04 10:32:20;;;;;;;9.25;2.70;;;22.80;49.60;;;;;;10527642;28;20080;-22
2023/05/04 10:37:22;;;;;;;3.30;1.95;;;22.50;50.00;;;;;;10520698;28;20044;-23
2023/05/04 10:42:25;;;;;;;3.72;1.35;;;23.10;49.10;;;;;;10522440;28;20048;-23
2023/05/04 10:47:29;;;;;;;2.58;2.00;;;22.80;49.80;;;;;;10534116;28;20388;-23
2023/05/04 10:52:31;;;;;;;4.70;1.80;;;22.90;49.60;;;;;;10536615;28;20059;-22
2023/05/04 10:57:45;;;;;;;6.32;1.75;;;23.20;49.00;;;;;;10524495;28;20531;-23
2023/05/04 11:02:48;;;;;;;7.13;3.38;;;22.90;49.70;;;;;;10535656;28;20105;-24
2023/05/04 11:07:51;;;;;;;3.95;2.35;;;23.10;49.20;;;;;;10529536;28;20053;-23
2023/05/04 11:13:01;;;;;;;2.50;1.63;;;23.10;49.40;;;;;;10530935;28;20052;-23
2023/05/04 11:18:03;;;;;;;3.58;1.52;;;23.40;48.60;;;;;;10535964;28;20048;-23
2023/05/04 11:23:09;;;;;;;7.97;2.78;;;23.60;48.70;;;;;;10530949;28;20462;-24
2023/05/04 11:28:12;;;;;;;2.45;1.55;;;23.40;49.10;;;;;;10524925;28;20127;-23
2023/05/04 11:33:15;;;;;;;5.05;3.08;;;23.30;49.10;;;;;;10532385;28;20048;-23
2023/05/04 11:38:19;;;;;;;3.13;2.10;;;23.50;49.20;;;;;;10530606;28;20117;-24
2023/05/04 11:43:23;;;;;;;5.57;2.55;;;23.50;48.80;;;;;;10525677;28;20052;-24
2023/05/04 11:48:25;;;;;;;7.65;2.95;;;23.80;48.90;;;;;;10525149;28;20048;-24
2023/05/04 11:53:27;;;;;;;9.65;3.55;;;24.00;48.40;;;;;;10523196;28;20052;-25
2023/05/04 11:58:31;;;;;;;5.93;3.80;;;24.10;48.30;;;;;;10521941;28;20098;-24
2023/05/04 12:03:38;;;;;;;7.20;2.92;;;24.20;48.10;;;;;;10524895;28;20446;-22
2023/05/04 12:08:41;;;;;;;14.98;2.58;;;24.20;49.00;;;;;;10531103;28;20192;-22
2023/05/04 12:13:46;;;;;;;8.23;3.85;;;24.50;48.90;;;;;;10525338;28;21032;-22
2023/05/04 12:18:48;;;;;;;10.63;3.65;;;24.30;48.10;;;;;;10521469;28;20072;-23
2023/05/04 12:23:50;;;;;;;8.70;4.45;;;24.70;48.00;;;;;;10537586;28;20046;-23
2023/05/04 12:28:53;;;;;;;;;;;24.70;48.30;;;;;;10536196;28;20126;-23
2023/05/04 12:33:55;;;;;;;4.70;1.52;;;24.70;47.80;;;;;;10530157;28;20048;-23
2023/05/04 12:38:57;;;;;;;9.18;4.72;;;24.90;47.40;;;;;;10518173;28;20378;-24
2023/05/04 12:44:00;;;;;;;5.45;2.83;;;25.20;46.70;;;;;;10526365;28;20495;-24
2023/05/04 12:49:02;;;;;;;9.43;3.53;;;25.30;46.60;;;;;;10528340;28;20089;-25
2023/05/04 12:54:04;;;;;;;8.00;3.42;;;25.60;46.50;;;;;;10526696;28;20075;-25
2023/05/04 12:59:07;;;;;;;3.70;2.88;;;25.60;46.30;;;;;;10518539;28;20428;-24
2023/05/04 13:04:09;;;;;;;7.88;3.47;;;25.90;46.30;;;;;;10527792;28;20081;-24
2023/05/04 13:09:11;;;;;;;7.30;4.25;;;26.20;45.90;;;;;;10524671;28;20063;-25
2023/05/04 13:14:15;;;;;;;6.85;4.05;;;26.10;46.00;;;;;;10522521;28;20048;-24
2023/05/04 13:19:17;;;;;;;7.50;3.38;;;26.20;45.90;;;;;;10532318;28;20058;-24
2023/05/04 13:24:19;;;;;;;7.90;4.07;;;26.70;45.00;;;;;;10528266;28;20545;-24
2023/05/04 13:29:22;;;;;;;10.80;5.28;;;27.00;44.50;;;;;;10502469;28;20477;-24
2023/05/04 13:34:23;;;;;;;12.65;4.40;;;26.90;44.90;;;;;;10518998;28;20131;-25
2023/05/04 13:39:27;;;;;;;7.55;4.65;;;26.90;45.20;;;;;;10523699;28;20051;-24
2023/05/04 13:44:31;;;;;;;5.63;3.92;;;26.70;45.10;;;;;;10529875;28;20044;-24
2023/05/04 13:49:32;;;;;;;5.95;2.50;;;27.40;44.10;;;;;;10526669;28;20044;-24
2023/05/04 13:54:36;;;;;;;8.65;3.30;;;27.80;44.50;;;;;;10528010;28;20048;-24
2023/05/04 13:59:39;;;;;;;12.18;7.38;;;28.20;44.00;;;;;;10527351;28;20044;-24
2023/05/04 14:04:42;;;;;;;6.30;3.38;;;28.40;43.90;;;;;;10520753;28;20139;-23
2023/05/04 14:09:44;;;;;;;4.30;3.08;;;28.40;44.30;;;;;;10516084;28;20048;-24
2023/05/04 14:14:49;;;;;;;6.20;4.28;;;29.40;42.90;;;;;;10517771;28;20041;-25
2023/05/04 14:19:51;;;;;;;4.55;3.38;;;29.10;43.10;;;;;;10523931;28;20896;-23
2023/05/04 14:24:53;;;;;;;4.18;2.10;;;29.40;43.60;;;;;;10531027;28;20094;-24
2023/05/04 14:29:56;;;;;;;11.02;4.25;;;28.90;43.40;;;;;;10525262;28;20052;-25
2023/05/04 14:35:05;;;;;;;20.10;10.07;;;29.70;42.80;;;;;;10508919;28;20139;-23
2023/05/04 14:40:08;;;;;;;8.95;5.28;;;29.70;41.20;;;;;;10515940;28;20159;-22
2023/05/04 14:45:12;;;;;;;7.53;4.63;;;29.10;43.50;;;;;;10532431;28;20131;-24
2023/05/04 14:50:14;;;;;;;6.78;4.53;;;28.60;43.70;;;;;;10517044;28;20128;-24
2023/05/04 14:55:16;;;;;;;6.15;3.25;;;29.00;45.90;;;;;;10527189;28;20047;-24
2023/05/04 15:00:20;;;;;;;7.28;4.60;;;29.00;44.10;;;;;;10522716;28;20072;-22
2023/05/04 15:05:22;;;;;;;9.98;4.68;;;28.70;43.40;;;;;;10528729;28;20252;-24
2023/05/04 15:10:24;;;;;;;4.75;3.53;;;29.40;42.60;;;;;;10522681;28;20084;-24
2023/05/04 15:15:27;;;;;;;5.85;3.58;;;29.80;42.50;;;;;;10535183;28;20155;-24
2023/05/04 15:20:29;;;;;;;8.13;4.82;;;29.30;43.10;;;;;;10526505;28;20109;-23
2023/05/04 15:25:31;;;;;;;4.88;3.20;;;29.00;42.40;;;;;;10521823;28;20052;-23
2023/05/04 15:30:35;;;;;;;9.23;6.32;;;28.70;43.00;;;;;;10533704;28;20079;-25
2023/05/04 15:35:38;;;;;;;8.50;4.25;;;29.10;43.20;;;;;;10529574;28;20496;-25
2023/05/04 15:40:39;;;;;;;3.45;2.75;;;28.70;42.10;;;;;;10528562;28;20135;-24
2023/05/04 15:45:43;;;;;;;3.85;2.42;;;28.60;44.40;;;;;;10510005;28;20572;-24
2023/05/04 15:50:44;;;;;;;9.55;4.55;;;29.50;42.20;;;;;;10525092;28;20082;-26
2023/05/04 15:55:46;;;;;;;5.88;2.67;;;29.90;40.90;;;;;;10527092;28;20058;-31
2023/05/04 16:00:50;;;;;;;5.00;2.75;;;29.70;42.60;;;;;;10530694;28;20100;-24
2023/05/04 16:05:53;;;;;;;7.35;4.85;;;29.20;43.00;;;;;;10526788;28;20147;-24
2023/05/04 16:10:56;;;;;;;5.85;3.92;;;28.90;41.20;;;;;;10518232;28;20102;-24
2023/05/04 16:15:59;;;;;;;3.20;2.75;;;28.80;45.50;;;;;;10523249;28;20377;-24
2023/05/04 16:21:01;;;;;;;4.00;1.73;;;29.40;44.10;;;;;;10520171;28;20055;-25
2023/05/04 16:26:03;;;;;;;3.67;3.05;;;30.20;45.00;;;;;;10522834;28;20577;-26
2023/05/04 16:31:06;;;;;;;6.93;3.85;;;30.60;42.90;;;;;;10518582;28;20040;-25
2023/05/04 16:36:09;;;;;;;9.02;2.58;;;31.80;41.60;;;;;;10525978;28;20603;-24
2023/05/04 16:41:11;;;;;;;4.68;3.00;;;31.60;42.00;;;;;;10525857;28;20093;-25
2023/05/04 16:46:15;;;;;;;7.82;4.00;;;30.80;43.10;;;;;;10526874;28;20067;-24
2023/05/04 16:51:17;;;;;;;6.90;2.45;;;31.40;41.80;;;;;;10526146;28;20079;-24
2023/05/04 16:56:20;;;;;;;2.30;2.10;;;31.50;41.70;;;;;;10524440;28;20199;-25
2023/05/04 17:01:23;;;;;;;2.85;2.20;;;30.30;42.70;;;;;;10521950;28;20048;-25
2023/05/04 17:06:25;;;;;;;9.48;3.38;;;30.70;43.30;;;;;;10517028;28;20552;-24
2023/05/04 17:11:27;;;;;;;7.60;2.15;;;31.10;42.20;;;;;;10517870;28;20089;-24
2023/05/04 17:16:30;;;;;;;3.45;1.90;;;31.40;42.80;;;;;;10525123;28;20140;-25
2023/05/04 17:21:32;;;;;;;4.70;3.03;;;31.50;43.10;;;;;;10524351;28;20532;-23
2023/05/04 17:26:34;;;;;;;4.25;2.40;;;31.10;44.00;;;;;;10527430;28;20044;-22
2023/05/04 17:31:39;;;;;;;2.22;1.80;;;31.70;43.40;;;;;;10523749;28;20176;-24
2023/05/04 17:36:41;;;;;;;12.48;3.00;;;31.50;44.20;;;;;;10531814;28;20047;-25
2023/05/04 17:41:47;;;;;;;2.22;1.40;;;32.30;44.60;;;;;;10532290;28;20040;-24
2023/05/04 17:46:50;;;;;;;4.13;1.90;;;31.10;43.50;;;;;;10531269;28;20066;-24
2023/05/04 17:51:52;;;;;;;2.50;1.58;;;31.70;44.00;;;;;;10520747;28;20090;-24
2023/05/04 17:56:54;;;;;;;2.00;1.80;;;31.80;44.40;;;;;;10536805;28;20500;-23
2023/05/04 18:01:58;;;;;;;3.58;1.38;;;31.80;48.60;;;;;;10530903;28;20129;-23
2023/05/04 18:07:00;;;;;;;3.78;1.58;;;31.10;45.50;;;;;;10530187;28;20094;-24
2023/05/04 18:12:03;;;;;;;3.15;1.50;;;30.70;45.80;;;;;;10530721;28;20047;-25
2023/05/04 18:17:06;;;;;;;2.45;1.45;;;30.30;46.60;;;;;;10529639;28;20051;-25
2023/05/04 18:22:08;;;;;;;1.40;1.30;;;30.10;47.00;;;;;;10539748;28;20096;-24
2023/05/04 18:27:11;;;;;;;8.30;2.00;;;30.00;47.10;;;;;;10533429;28;20178;-25
2023/05/04 18:32:14;;;;;;;2.55;1.52;;;30.20;47.80;;;;;;10537125;28;20128;-24
2023/05/04 18:37:16;;;;;;;3.17;1.67;;;30.00;46.90;;;;;;10537665;28;20480;-24
2023/05/04 18:42:18;;;;;;;1.65;1.55;;;29.80;47.20;;;;;;10525696;28;20771;-25
2023/05/04 18:47:21;;;;;;;2.90;1.55;;;29.60;47.30;;;;;;10531698;28;20542;-25
2023/05/04 18:52:24;;;;;;;1.95;1.60;;;29.50;48.40;;;;;;10519580;28;20052;-23
2023/05/04 18:57:26;;;;;;;5.65;3.15;;;29.20;47.50;;;;;;10528261;28;20142;-25
2023/05/04 19:02:32;;;;;;;1.98;1.45;;;29.10;48.90;;;;;;10530714;28;20048;-24
2023/05/04 19:07:35;;;;;;;3.40;1.30;;;29.00;47.80;;;;;;10527132;28;20075;-24
2023/05/04 19:12:38;;;;;;;2.17;1.88;;;29.00;47.90;;;;;;10526782;28;20047;-25
2023/05/04 19:17:41;;;;;;;2.00;1.77;;;28.70;48.00;;;;;;10519074;28;20554;-25
2023/05/04 19:22:43;;;;;;;3.53;2.13;;;28.70;48.00;;;;;;10519509;28;20126;-25
2023/05/04 19:27:45;;;;;;;2.13;1.70;;;28.70;48.00;;;;;;10526280;28;20482;-24
2023/05/04 19:32:49;;;;;;;2.45;1.40;;;28.50;48.10;;;;;;10520809;28;20059;-24
2023/05/04 19:37:52;;;;;;;2.55;1.60;;;28.50;48.30;;;;;;10533519;28;20109;-23
2023/05/04 19:42:54;;;;;;;3.90;1.88;;;28.40;48.40;;;;;;10528971;28;20159;-24
2023/05/04 19:47:58;;;;;;;3.13;2.20;;;28.30;48.40;;;;;;10533233;28;20059;-23
2023/05/04 19:53:00;;;;;;;3.30;1.75;;;28.20;48.40;;;;;;10511938;28;20052;-24
2023/05/04 19:58:02;;;;;;;3.53;1.88;;;28.10;48.70;;;;;;10522326;28;20079;-25
2023/05/04 20:03:06;;;;;;;2.20;1.58;;;28.00;48.70;;;;;;10531403;28;20074;-25
2023/05/04 20:08:08;;;;;;;2.53;1.50;;;28.00;49.00;;;;;;10522866;28;20051;-24
2023/05/04 20:13:10;;;;;;;3.67;2.25;;;27.90;49.10;;;;;;10523434;28;20218;-25
2023/05/04 20:18:15;;;;;;;3.38;1.65;;;27.70;49.10;;;;;;10521383;28;20075;-24
2023/05/04 20:23:19;;;;;;;4.75;1.88;;;27.60;49.10;;;;;;10528310;28;20475;-25
2023/05/04 20:28:21;;;;;;;4.30;1.70;;;27.50;49.10;;;;;;10529953;28;20134;-25
2023/05/04 20:33:25;;;;;;;3.35;2.10;;;27.40;49.20;;;;;;10522813;28;20071;-24
2023/05/04 20:38:29;;;;;;;2.95;1.92;;;27.40;49.30;;;;;;10517168;28;20048;-25
2023/05/04 20:43:31;;;;;;;2.55;1.85;;;27.30;49.40;;;;;;10513864;28;20420;-23
2023/05/04 20:48:35;;;;;;;7.13;1.92;;;27.20;49.60;;;;;;10526691;28;20485;-25
2023/05/04 20:53:37;;;;;;;2.40;1.50;;;27.10;49.60;;;;;;10526199;28;20078;-22
2023/05/04 20:58:39;;;;;;;4.93;2.08;;;27.00;49.60;;;;;;10521181;28;20056;-26
2023/05/04 21:03:43;;;;;;;4.40;1.85;;;27.00;49.60;;;;;;10508464;28;20058;-24
2023/05/04 21:08:45;;;;;;;2.30;1.48;;;26.90;49.70;;;;;;10525792;28;20048;-24
2023/05/04 21:13:48;;;;;;;5.15;1.98;;;26.90;49.70;;;;;;10526394;28;20420;-24
2023/05/04 21:18:52;;;;;;;2.63;2.22;;;26.80;49.80;;;;;;10523052;28;20059;-28
2023/05/04 21:23:54;;;;;;;3.22;2.00;;;26.70;49.80;;;;;;10524362;28;20373;-25
2023/05/04 21:28:56;;;;;;;4.35;2.17;;;26.70;49.90;;;;;;10519693;28;20052;-25
2023/05/04 21:34:00;;;;;;;3.35;2.17;;;26.60;49.90;;;;;;10516472;28;20044;-25
2023/05/04 21:39:03;;;;;;;5.57;2.53;;;26.60;50.20;;;;;;10526920;28;20559;-28
2023/05/04 21:44:05;;;;;;;6.32;2.97;;;26.00;50.60;;;;;;10515429;28;20051;-24
2023/05/04 21:49:11;;;;;;;9.68;4.95;;;25.60;51.60;;;;;;10514731;28;20135;-24
2023/05/04 21:54:14;;;;;;;8.68;5.22;;;25.50;51.50;;;;;;10521717;28;20062;-24
2023/05/04 21:59:15;;;;;;;4.03;2.90;;;23.60;55.20;;;;;;10517389;28;20087;-25
2023/05/04 22:04:20;;;;;;;3.45;2.20;;;24.60;54.40;;;;;;10501098;28;20152;-24
2023/05/04 22:09:22;;;;;;;2.75;1.90;;;25.50;51.80;;;;;;10526173;28;20044;-23
2023/05/04 22:14:26;;;;;;;4.22;2.38;;;25.80;51.30;;;;;;10532219;28;20056;-23
2023/05/04 22:19:29;;;;;;;3.55;3.22;;;25.80;51.40;;;;;;10518211;28;20446;-23
2023/05/04 22:24:32;;;;;;;6.88;3.03;;;25.40;52.20;;;;;;10515026;28;20049;-24
2023/05/04 22:29:34;;;;;;;3.40;2.40;;;25.60;51.80;;;;;;10513798;28;20119;-24
2023/05/04 22:34:38;;;;;;;5.30;4.15;;;25.80;51.40;;;;;;10515424;28;20044;-25
2023/05/04 22:39:40;;;;;;;2.47;2.25;;;25.70;51.50;;;;;;10531434;28;20426;-24
2023/05/04 22:44:42;;;;;;;3.40;2.22;;;25.80;51.40;;;;;;10538224;28;20504;-24
2023/05/04 22:49:46;;;;;;;3.90;2.40;;;25.80;51.40;;;;;;10536679;28;20048;-24
2023/05/04 22:54:48;;;;;;;5.15;2.50;;;25.80;51.50;;;;;;10527265;28;20052;-24
2023/05/04 22:59:51;;;;;;;5.10;2.55;;;25.60;51.90;;;;;;10535798;28;20054;-23
2023/05/04 23:04:55;;;;;;;3.92;3.10;;;25.70;51.70;;;;;;10539408;28;20084;-23
2023/05/04 23:09:58;;;;;;;3.03;2.47;;;25.50;51.90;;;;;;10531026;28;20048;-23
2023/05/04 23:15:01;;;;;;;4.55;4.00;;;25.30;52.50;;;;;;10540273;28;20068;-24
2023/05/04 23:20:06;;;;;;;8.45;5.88;;;25.40;52.30;;;;;;10522395;28;20044;-24
2023/05/04 23:25:08;;;;;;;12.10;5.68;;;23.50;58.10;;;;;;10523155;28;20480;-26
2023/05/04 23:30:11;;;;;;;17.55;8.77;;;22.10;64.70;;;;;;10524103;28;20040;-24
2023/05/04 23:35:14;;;;;;;9.27;4.70;;;21.60;65.70;;;;;;10524722;28;20087;-26
2023/05/04 23:40:16;;;;;;;6.25;3.53;;;20.90;71.10;;;;;;10531390;28;20576;-24
2023/05/04 23:45:18;;;;;;;3.47;3.08;;;22.30;65.70;;;;;;10544027;28;20083;-22
2023/05/04 23:50:22;;;;;;;10.02;2.45;;;22.80;63.10;;;;;;10533281;28;20083;-24
2023/05/04 23:55:24;;;;;;;4.45;1.95;;;23.40;61.90;;;;;;10527660;28;20048;-23
